Terminal Aerodrome Forecast
Issued by NWS Shreveport, LA

Home | Current Version | Previous Version | Text Only | Print | Product List | Glossary On
Versions: 1 2 3 4 5 6 7 8 9 10 11 12 13 14 15 16 17 18 19 20 21 22 23 24 25 26 27 28 29 30 31 32 33 34 35 36
000
FTUS44 KSHV 240957 AAA
TAFMLU
TAF AMD
KMLU 240957Z 2410/2506 21005KT 6SM -SHRA SCT070 BKN090 OVC110
     FM241400 20005KT P6SM BKN025
     FM241600 19006KT P6SM BKN035
     FM241800 22006KT P6SM SCT040=

USA.gov is the U.S. government's official web portal to all federal, state and local government web resources and services.